Time;durP1;ratioP1;P1;durP2;ratioP2;P2;SDS_P1;SDS_P2;PMS_P1;PMS_P2;Temp;Humidity;BMP_temperature;BMP_pressure;BME280_temperature;BME280_humidity;BME280_pressure;Samples;Min_cycle;Max_cycle;Signal;HPM_P1;HPM_P2
2023/09/16 00:00:06;;;;;;;10.40;5.05;;;22.90;65.40;;;;;;352541;28;908;-55
2023/09/16 00:00:17;;;;;;;8.43;4.78;;;22.90;65.40;;;;;;352482;28;939;-55
2023/09/16 00:00:33;;;;;;;9.75;5.30;;;22.90;65.30;;;;;;352323;28;1411;-54
2023/09/16 00:00:44;;;;;;;10.68;5.30;;;22.90;65.20;;;;;;352499;28;1130;-55
2023/09/16 00:00:54;;;;;;;10.82;4.97;;;22.90;65.20;;;;;;352430;28;1150;-55
2023/09/16 00:01:05;;;;;;;10.47;4.73;;;22.90;65.20;;;;;;352465;28;929;-54
2023/09/16 00:01:16;;;;;;;11.13;4.90;;;22.90;65.30;;;;;;352386;28;1066;-55
2023/09/16 00:01:28;;;;;;;10.02;4.95;;;22.90;65.30;;;;;;352556;28;856;-55
2023/09/16 00:01:39;;;;;;;9.45;4.97;;;22.90;65.40;;;;;;352467;28;1597;-54
2023/09/16 00:01:50;;;;;;;8.13;4.88;;;22.90;65.50;;;;;;352474;28;1079;-55
2023/09/16 00:02:00;;;;;;;8.10;4.65;;;22.90;65.60;;;;;;352389;28;1095;-54
2023/09/16 00:02:11;;;;;;;8.90;4.40;;;22.90;65.60;;;;;;352534;28;939;-55
2023/09/16 00:02:22;;;;;;;9.10;4.50;;;22.90;65.60;;;;;;352473;28;979;-54
2023/09/16 00:02:33;;;;;;;9.10;4.75;;;22.90;65.70;;;;;;352490;28;1107;-54
2023/09/16 00:02:43;;;;;;;9.68;4.93;;;22.90;65.70;;;;;;352356;28;1436;-55
2023/09/16 00:02:54;;;;;;;9.83;5.13;;;22.90;65.90;;;;;;352506;28;1101;-54
2023/09/16 00:03:05;;;;;;;10.85;5.32;;;22.90;66.10;;;;;;352499;27;1122;-54
2023/09/16 00:03:15;;;;;;;10.18;5.28;;;22.90;66.30;;;;;;352407;28;1914;-54
2023/09/16 00:03:26;;;;;;;9.48;5.05;;;22.90;66.40;;;;;;352481;28;1069;-54
2023/09/16 00:03:37;;;;;;;9.30;4.87;;;22.90;66.40;;;;;;352467;28;948;-54
2023/09/16 00:03:48;;;;;;;10.20;4.75;;;22.90;66.40;;;;;;352495;28;987;-54
2023/09/16 00:03:59;;;;;;;9.80;4.80;;;22.90;66.40;;;;;;352444;28;1873;-54
2023/09/16 00:04:11;;;;;;;10.68;4.90;;;22.90;66.20;;;;;;352441;28;1013;-54
2023/09/16 00:04:23;;;;;;;9.73;4.72;;;22.90;66.10;;;;;;352492;28;1189;-54
2023/09/16 00:04:34;;;;;;;8.98;4.80;;;22.90;66.00;;;;;;352468;28;1499;-54
2023/09/16 00:04:45;;;;;;;8.77;4.90;;;22.90;66.00;;;;;;352457;28;1012;-54
2023/09/16 00:04:55;;;;;;;9.40;4.88;;;22.90;66.00;;;;;;352383;28;1009;-54
2023/09/16 00:05:06;;;;;;;10.25;4.95;;;22.90;66.00;;;;;;352459;28;1489;-54
2023/09/16 00:05:17;;;;;;;11.73;5.05;;;22.90;66.00;;;;;;352539;28;821;-54
2023/09/16 00:05:28;;;;;;;11.63;4.85;;;22.90;66.00;;;;;;352550;27;884;-53
2023/09/16 00:05:39;;;;;;;10.17;4.53;;;22.90;65.90;;;;;;352330;28;1046;-54
2023/09/16 00:05:49;;;;;;;10.18;4.68;;;22.90;65.90;;;;;;352423;28;1365;-54
2023/09/16 00:06:00;;;;;;;9.43;5.07;;;22.90;65.80;;;;;;352399;28;1517;-54
2023/09/16 00:06:12;;;;;;;10.02;5.30;;;22.90;65.80;;;;;;352516;28;941;-55
2023/09/16 00:06:23;;;;;;;8.75;4.78;;;22.90;65.80;;;;;;352456;28;1043;-54
2023/09/16 00:06:34;;;;;;;8.80;4.50;;;22.90;65.90;;;;;;352412;28;2450;-55
2023/09/16 00:06:46;;;;;;;8.97;4.93;;;22.90;66.00;;;;;;352483;28;915;-55
2023/09/16 00:06:56;;;;;;;10.57;5.45;;;22.90;66.10;;;;;;352478;28;1558;-55
2023/09/16 00:07:07;;;;;;;10.07;5.28;;;22.90;66.20;;;;;;352404;28;1578;-54
2023/09/16 00:07:18;;;;;;;9.35;5.13;;;22.90;66.20;;;;;;352511;28;1058;-54
2023/09/16 00:07:29;;;;;;;8.65;4.80;;;22.90;66.20;;;;;;352509;28;1003;-55
2023/09/16 00:07:40;;;;;;;9.45;4.80;;;22.90;66.00;;;;;;352520;28;987;-54
2023/09/16 00:07:51;;;;;;;8.63;4.45;;;22.90;65.90;;;;;;352387;28;1027;-54
2023/09/16 00:08:01;;;;;;;9.00;4.20;;;22.90;65.70;;;;;;352493;28;868;-54
2023/09/16 00:08:12;;;;;;;9.45;4.25;;;22.90;65.60;;;;;;352453;28;979;-54
2023/09/16 00:08:23;;;;;;;10.80;4.35;;;22.90;65.50;;;;;;352429;28;1154;-55
2023/09/16 00:08:33;;;;;;;9.83;4.50;;;22.90;65.50;;;;;;352411;28;1045;-56
2023/09/16 00:08:44;;;;;;;8.70;4.30;;;22.90;65.50;;;;;;352562;28;868;-55
2023/09/16 00:08:55;;;;;;;8.38;4.43;;;22.90;65.50;;;;;;352485;28;1900;-55
2023/09/16 00:09:06;;;;;;;9.52;4.43;;;22.90;65.50;;;;;;352499;28;1030;-54
2023/09/16 00:09:16;;;;;;;10.43;4.53;;;22.90;65.50;;;;;;352395;28;1030;-54
2023/09/16 00:09:27;;;;;;;11.60;4.70;;;22.90;65.50;;;;;;352505;28;1011;-55
2023/09/16 00:09:40;;;;;;;10.68;4.70;;;22.90;65.40;;;;;;352515;28;940;-54
2023/09/16 00:09:51;;;;;;;10.80;4.78;;;22.90;65.30;;;;;;352489;28;1044;-54
2023/09/16 00:10:01;;;;;;;10.65;4.97;;;22.90;65.30;;;;;;352529;28;1037;-54
2023/09/16 00:10:12;;;;;;;9.50;4.77;;;22.90;65.40;;;;;;352502;28;1030;-54
2023/09/16 00:10:23;;;;;;;7.57;4.30;;;22.90;65.30;;;;;;352461;28;1014;-54
2023/09/16 00:10:34;;;;;;;7.07;4.05;;;22.90;65.20;;;;;;352539;28;809;-54
2023/09/16 00:10:45;;;;;;;6.70;3.90;;;22.90;65.20;;;;;;352500;28;1042;-55
2023/09/16 00:10:56;;;;;;;6.68;4.20;;;22.90;65.20;;;;;;352457;28;1098;-54
2023/09/16 00:11:09;;;;;;;7.05;4.43;;;22.90;65.30;;;;;;352476;28;1019;-55
2023/09/16 00:11:21;;;;;;;9.30;4.68;;;22.90;65.30;;;;;;352516;28;1023;-55
2023/09/16 00:11:32;;;;;;;9.65;4.95;;;22.90;65.30;;;;;;352441;27;923;-54
2023/09/16 00:11:43;;;;;;;10.55;5.10;;;22.90;65.40;;;;;;352505;28;872;-53
2023/09/16 00:11:53;;;;;;;9.57;5.20;;;22.90;65.40;;;;;;352448;28;1010;-54
2023/09/16 00:12:04;;;;;;;11.30;5.38;;;22.90;65.50;;;;;;352422;28;929;-56
2023/09/16 00:12:15;;;;;;;10.52;5.30;;;22.90;65.50;;;;;;352500;28;872;-54
2023/09/16 00:12:27;;;;;;;10.70;5.33;;;22.90;65.40;;;;;;352449;28;1075;-55
2023/09/16 00:12:37;;;;;;;9.70;5.38;;;22.90;65.30;;;;;;352379;28;1106;-55
2023/09/16 00:12:49;;;;;;;9.63;5.18;;;22.90;65.10;;;;;;352486;28;959;-55
2023/09/16 00:13:00;;;;;;;9.35;5.15;;;22.90;65.10;;;;;;352491;28;1058;-53
2023/09/16 00:13:11;;;;;;;12.90;5.57;;;22.90;65.00;;;;;;352465;28;1026;-54
2023/09/16 00:13:22;;;;;;;13.85;6.00;;;22.90;65.10;;;;;;352478;28;801;-54
2023/09/16 00:13:33;;;;;;;12.13;5.20;;;22.90;65.10;;;;;;352497;28;979;-55
2023/09/16 00:13:43;;;;;;;9.75;4.57;;;22.90;65.10;;;;;;352457;28;1054;-54
2023/09/16 00:13:54;;;;;;;9.68;4.30;;;22.90;65.10;;;;;;352504;28;1078;-56
2023/09/16 00:14:05;;;;;;;10.63;4.65;;;22.90;65.10;;;;;;352447;28;1419;-54
2023/09/16 00:14:18;;;;;;;10.10;5.03;;;22.90;65.00;;;;;;352431;28;1348;-54
2023/09/16 00:14:29;;;;;;;8.40;5.18;;;22.90;65.10;;;;;;352527;28;888;-55
2023/09/16 00:14:40;;;;;;;7.95;5.05;;;22.90;65.20;;;;;;352443;28;1019;-54
2023/09/16 00:14:51;;;;;;;9.32;5.30;;;22.90;65.40;;;;;;352474;28;1000;-54
2023/09/16 00:15:02;;;;;;;9.50;5.00;;;22.90;65.50;;;;;;352489;28;844;-55
2023/09/16 00:15:13;;;;;;;8.95;5.00;;;22.90;65.60;;;;;;352398;27;1259;-54
2023/09/16 00:15:24;;;;;;;8.55;4.72;;;22.90;65.70;;;;;;352460;28;995;-54
2023/09/16 00:15:35;;;;;;;8.60;4.90;;;22.90;65.70;;;;;;352498;28;1006;-54
2023/09/16 00:15:48;;;;;;;8.50;4.80;;;22.90;65.80;;;;;;352407;28;1136;-55
2023/09/16 00:15:59;;;;;;;9.50;4.85;;;22.90;65.90;;;;;;352464;28;1108;-55
2023/09/16 00:16:12;;;;;;;9.47;4.83;;;22.90;65.90;;;;;;352506;28;1011;-55
2023/09/16 00:16:22;;;;;;;10.10;4.95;;;22.90;65.80;;;;;;352403;28;1216;-54
2023/09/16 00:16:33;;;;;;;9.93;5.03;;;22.90;65.60;;;;;;352509;28;1070;-53
2023/09/16 00:16:45;;;;;;;10.05;4.90;;;22.90;65.50;;;;;;352472;28;1570;-54
2023/09/16 00:16:58;;;;;;;9.48;4.88;;;22.90;65.40;;;;;;352413;28;874;-54
2023/09/16 00:17:10;;;;;;;9.70;4.88;;;22.80;65.50;;;;;;352532;28;931;-57
2023/09/16 00:17:21;;;;;;;8.70;4.68;;;22.90;65.60;;;;;;352378;28;1201;-54
2023/09/16 00:17:33;;;;;;;9.95;5.10;;;22.90;65.70;;;;;;352493;28;1090;-55
2023/09/16 00:17:44;;;;;;;12.13;5.68;;;22.90;65.70;;;;;;352419;28;1019;-55
2023/09/16 00:17:55;;;;;;;12.10;5.75;;;22.90;65.70;;;;;;352399;28;1103;-54
2023/09/16 00:18:05;;;;;;;11.25;5.45;;;22.90;65.60;;;;;;352414;28;1119;-54
2023/09/16 00:18:17;;;;;;;10.77;5.37;;;22.90;65.70;;;;;;352394;28;1046;-55
2023/09/16 00:18:28;;;;;;;9.18;4.88;;;22.80;65.60;;;;;;352503;28;936;-54
2023/09/16 00:18:38;;;;;;;8.88;5.10;;;22.80;65.50;;;;;;352519;28;939;-54
2023/09/16 00:18:49;;;;;;;8.57;5.05;;;22.90;65.60;;;;;;352366;28;1406;-54
2023/09/16 00:19:00;;;;;;;8.87;5.27;;;22.90;65.60;;;;;;352502;28;971;-55
2023/09/16 00:19:12;;;;;;;8.88;5.03;;;22.80;65.60;;;;;;352529;28;980;-55
2023/09/16 00:19:23;;;;;;;8.77;5.05;;;22.90;65.60;;;;;;352507;28;1101;-55
2023/09/16 00:19:34;;;;;;;8.60;5.07;;;22.90;65.60;;;;;;352419;28;901;-53
2023/09/16 00:19:45;;;;;;;8.93;5.40;;;22.90;65.80;;;;;;352424;28;1379;-53
2023/09/16 00:19:56;;;;;;;9.50;5.63;;;22.90;65.90;;;;;;352431;28;1503;-54
2023/09/16 00:20:16;;;;;;;9.02;5.50;;;22.90;66.00;;;;;;352459;28;1154;-54
2023/09/16 00:20:28;;;;;;;8.85;4.63;;;22.90;65.90;;;;;;352474;28;1119;-55
2023/09/16 00:20:39;;;;;;;9.63;4.38;;;22.90;66.20;;;;;;352441;28;1197;-55
2023/09/16 00:20:49;;;;;;;9.68;4.90;;;22.90;66.20;;;;;;352477;28;1058;-55
2023/09/16 00:21:00;;;;;;;8.93;4.93;;;22.90;66.20;;;;;;352416;28;1118;-55
2023/09/16 00:21:11;;;;;;;8.30;4.93;;;22.90;66.10;;;;;;352420;28;1110;-54
2023/09/16 00:21:22;;;;;;;7.57;4.50;;;22.90;66.10;;;;;;352536;28;905;-54
2023/09/16 00:21:34;;;;;;;9.40;5.07;;;22.90;66.20;;;;;;352528;28;963;-55
2023/09/16 00:21:45;;;;;;;10.50;5.50;;;22.90;66.20;;;;;;352393;28;1031;-54
2023/09/16 00:21:57;;;;;;;9.77;5.35;;;23.00;66.20;;;;;;352459;28;816;-54
2023/09/16 00:22:11;;;;;;;9.95;5.30;;;22.90;66.30;;;;;;352502;28;932;-55
2023/09/16 00:22:22;;;;;;;9.15;5.15;;;22.90;66.40;;;;;;352401;28;1046;-54
2023/09/16 00:22:32;;;;;;;9.53;5.27;;;22.90;66.50;;;;;;352477;28;1095;-53
2023/09/16 00:22:43;;;;;;;9.88;5.47;;;22.90;66.40;;;;;;352502;28;1502;-55
2023/09/16 00:22:54;;;;;;;10.30;5.43;;;23.00;66.20;;;;;;352407;28;1054;-54
2023/09/16 00:23:06;;;;;;;9.52;4.97;;;22.90;66.10;;;;;;352524;28;983;-55
2023/09/16 00:23:17;;;;;;;10.18;4.78;;;23.00;66.00;;;;;;352433;28;1906;-54
2023/09/16 00:23:28;;;;;;;9.23;4.93;;;23.00;65.90;;;;;;352508;28;1030;-55
2023/09/16 00:23:38;;;;;;;10.17;5.03;;;23.00;65.80;;;;;;352409;28;1033;-54
2023/09/16 00:23:49;;;;;;;10.80;5.03;;;23.00;65.80;;;;;;352455;28;1309;-55
2023/09/16 00:24:00;;;;;;;11.20;4.70;;;23.00;65.90;;;;;;352452;28;845;-54
2023/09/16 00:24:11;;;;;;;9.70;4.45;;;23.00;66.00;;;;;;352418;28;1468;-55
2023/09/16 00:24:22;;;;;;;8.55;4.18;;;23.00;66.00;;;;;;352415;28;1089;-55
2023/09/16 00:24:33;;;;;;;9.13;4.57;;;23.00;65.90;;;;;;352448;28;883;-55
2023/09/16 00:24:43;;;;;;;8.90;4.70;;;23.00;66.00;;;;;;352409;28;1191;-54
2023/09/16 00:24:54;;;;;;;8.57;4.93;;;23.00;66.00;;;;;;352466;28;1739;-56
2023/09/16 00:25:05;;;;;;;8.70;4.95;;;23.00;66.00;;;;;;352396;28;1070;-54
2023/09/16 00:25:16;;;;;;;10.02;5.03;;;23.00;66.00;;;;;;352519;28;1763;-56
2023/09/16 00:25:26;;;;;;;10.25;4.80;;;23.00;66.00;;;;;;352458;28;980;-54
2023/09/16 00:25:37;;;;;;;8.70;4.93;;;23.00;66.00;;;;;;352444;28;1038;-54
2023/09/16 00:25:48;;;;;;;9.50;5.22;;;23.00;66.10;;;;;;352350;28;1066;-53
2023/09/16 00:25:59;;;;;;;10.43;5.38;;;23.00;66.10;;;;;;352444;28;1083;-55
2023/09/16 00:26:10;;;;;;;10.55;5.10;;;23.00;66.20;;;;;;352456;28;1099;-55
2023/09/16 00:26:21;;;;;;;10.65;4.78;;;23.00;66.30;;;;;;352470;27;1114;-54
2023/09/16 00:26:34;;;;;;;10.45;4.43;;;23.00;66.10;;;;;;352394;28;1270;-54
2023/09/16 00:26:45;;;;;;;9.52;4.50;;;23.00;65.90;;;;;;352466;28;1067;-55
2023/09/16 00:26:55;;;;;;;9.30;4.65;;;23.00;65.80;;;;;;352503;28;1089;-54
2023/09/16 00:27:07;;;;;;;9.13;4.75;;;23.00;65.80;;;;;;352324;28;1214;-54
2023/09/16 00:27:18;;;;;;;11.05;4.60;;;23.00;66.10;;;;;;352484;28;1035;-53
2023/09/16 00:27:29;;;;;;;11.25;4.47;;;23.00;66.00;;;;;;352485;28;1083;-55
2023/09/16 00:27:39;;;;;;;10.38;4.57;;;23.00;65.90;;;;;;352207;28;1139;-55
2023/09/16 00:27:50;;;;;;;9.95;4.72;;;23.00;66.00;;;;;;352241;28;1042;-55
2023/09/16 00:28:01;;;;;;;10.87;4.97;;;23.00;66.20;;;;;;352413;28;932;-53
2023/09/16 00:28:12;;;;;;;11.50;4.97;;;23.00;66.50;;;;;;352451;28;1106;-54
2023/09/16 00:28:25;;;;;;;10.38;4.93;;;23.00;66.50;;;;;;352473;28;816;-54
2023/09/16 00:28:36;;;;;;;9.88;5.28;;;23.00;66.70;;;;;;352399;28;1105;-55
2023/09/16 00:28:47;;;;;;;8.93;5.13;;;23.00;66.80;;;;;;352459;28;1755;-56
2023/09/16 00:28:57;;;;;;;9.52;5.38;;;23.00;67.00;;;;;;352420;28;1099;-54
2023/09/16 00:29:08;;;;;;;9.80;5.18;;;22.90;67.00;;;;;;352371;28;1037;-54
2023/09/16 00:29:19;;;;;;;10.25;5.28;;;23.00;67.00;;;;;;352483;28;1062;-54
2023/09/16 00:29:29;;;;;;;10.30;5.13;;;23.00;67.10;;;;;;352447;28;864;-55
2023/09/16 00:29:40;;;;;;;9.77;4.93;;;23.00;67.10;;;;;;352441;28;982;-55
2023/09/16 00:29:51;;;;;;;9.73;5.00;;;23.00;66.90;;;;;;352497;28;856;-53
2023/09/16 00:30:05;;;;;;;8.75;5.18;;;23.00;66.70;;;;;;352462;28;952;-55
2023/09/16 00:30:15;;;;;;;9.70;5.30;;;23.00;66.70;;;;;;352417;28;1015;-56
2023/09/16 00:30:26;;;;;;;9.07;5.13;;;23.00;66.80;;;;;;352510;28;840;-54
2023/09/16 00:30:39;;;;;;;8.93;5.00;;;23.00;66.90;;;;;;352491;28;1134;-55
2023/09/16 00:30:50;;;;;;;9.77;5.10;;;22.90;66.80;;;;;;352361;28;1122;-54
2023/09/16 00:31:01;;;;;;;9.98;5.15;;;23.00;66.90;;;;;;352445;28;999;-53
2023/09/16 00:31:12;;;;;;;10.70;5.05;;;22.90;67.10;;;;;;352545;28;931;-56
2023/09/16 00:31:22;;;;;;;11.87;4.83;;;23.00;67.30;;;;;;352374;28;1074;-54
2023/09/16 00:31:33;;;;;;;12.65;5.07;;;22.90;67.60;;;;;;352454;28;967;-54
2023/09/16 00:31:44;;;;;;;13.13;5.18;;;22.90;67.60;;;;;;352480;28;998;-54
2023/09/16 00:31:56;;;;;;;10.48;4.88;;;22.90;67.70;;;;;;352357;28;1018;-54
2023/09/16 00:32:07;;;;;;;9.82;4.63;;;22.90;67.40;;;;;;352500;28;1862;-55
2023/09/16 00:32:18;;;;;;;9.80;4.72;;;22.90;67.20;;;;;;352473;28;1602;-55
2023/09/16 00:32:28;;;;;;;9.77;4.53;;;23.00;67.10;;;;;;352405;27;1012;-56
2023/09/16 00:32:39;;;;;;;9.53;4.80;;;22.90;67.10;;;;;;352428;28;1597;-54
2023/09/16 00:32:50;;;;;;;8.98;4.85;;;22.90;67.20;;;;;;352456;28;854;-54
2023/09/16 00:33:03;;;;;;;9.25;5.22;;;22.90;67.30;;;;;;352297;28;1428;-54
2023/09/16 00:33:14;;;;;;;11.55;5.50;;;22.90;67.40;;;;;;352450;28;1007;-54
2023/09/16 00:33:25;;;;;;;11.18;5.35;;;22.90;67.50;;;;;;352508;28;960;-54
2023/09/16 00:33:35;;;;;;;10.32;5.00;;;22.90;67.50;;;;;;352353;28;1036;-54
2023/09/16 00:33:49;;;;;;;8.90;4.85;;;22.90;67.50;;;;;;352482;28;1066;-55
2023/09/16 00:34:00;;;;;;;10.52;5.20;;;22.90;67.60;;;;;;352236;28;1374;-54
2023/09/16 00:34:12;;;;;;;9.63;5.07;;;22.90;67.80;;;;;;352518;28;1034;-54
2023/09/16 00:34:22;;;;;;;9.80;5.20;;;22.90;67.90;;;;;;352372;28;1018;-54
2023/09/16 00:34:33;;;;;;;8.73;5.15;;;22.90;67.80;;;;;;352389;28;1433;-54
2023/09/16 00:34:44;;;;;;;7.60;4.70;;;22.90;67.60;;;;;;352468;28;939;-54
2023/09/16 00:34:54;;;;;;;8.15;4.40;;;22.90;67.50;;;;;;352417;28;1058;-54
2023/09/16 00:35:06;;;;;;;7.70;4.40;;;22.90;67.30;;;;;;352370;28;913;-55
2023/09/16 00:35:17;;;;;;;8.32;4.40;;;22.90;67.30;;;;;;352417;28;1302;-54
2023/09/16 00:35:28;;;;;;;7.67;4.20;;;22.90;67.30;;;;;;352464;28;990;-54
2023/09/16 00:35:38;;;;;;;9.02;4.65;;;22.90;67.40;;;;;;352406;28;1058;-54
2023/09/16 00:35:50;;;;;;;9.10;4.82;;;22.90;67.50;;;;;;352411;28;943;-54
2023/09/16 00:36:00;;;;;;;8.70;4.97;;;22.90;67.50;;;;;;352528;28;849;-53
2023/09/16 00:36:11;;;;;;;9.82;5.00;;;22.90;67.40;;;;;;352378;28;1099;-53
2023/09/16 00:36:22;;;;;;;10.73;5.28;;;22.90;67.50;;;;;;352458;28;983;-54
2023/09/16 00:36:32;;;;;;;10.57;5.40;;;22.90;67.50;;;;;;352364;28;933;-53
2023/09/16 00:36:43;;;;;;;9.23;5.32;;;22.90;67.40;;;;;;352482;28;786;-55
2023/09/16 00:36:54;;;;;;;9.85;5.10;;;22.90;67.40;;;;;;352496;28;959;-54
2023/09/16 00:37:05;;;;;;;8.65;4.50;;;22.90;67.30;;;;;;352509;28;1015;-55
2023/09/16 00:37:15;;;;;;;9.47;4.73;;;22.90;67.00;;;;;;352337;28;1134;-55
2023/09/16 00:37:26;;;;;;;8.52;4.72;;;22.90;66.80;;;;;;352502;28;907;-54
2023/09/16 00:37:37;;;;;;;9.65;5.05;;;22.90;66.80;;;;;;352425;28;2063;-54
2023/09/16 00:37:47;;;;;;;7.60;4.67;;;22.90;66.70;;;;;;352516;28;951;-56
2023/09/16 00:37:58;;;;;;;7.97;4.60;;;22.90;66.80;;;;;;352364;28;1078;-54
2023/09/16 00:38:09;;;;;;;8.20;4.82;;;22.80;66.80;;;;;;352464;28;1142;-54
2023/09/16 00:38:21;;;;;;;8.63;4.68;;;22.80;66.90;;;;;;352550;28;880;-54
2023/09/16 00:38:31;;;;;;;8.25;4.80;;;22.90;66.90;;;;;;352472;28;881;-54
2023/09/16 00:38:42;;;;;;;8.32;4.60;;;22.80;66.90;;;;;;352391;28;1093;-54
2023/09/16 00:38:53;;;;;;;8.80;4.75;;;22.90;67.10;;;;;;352406;28;1366;-54
2023/09/16 00:39:04;;;;;;;8.45;4.68;;;22.90;67.10;;;;;;352379;28;1574;-56
2023/09/16 00:39:15;;;;;;;9.43;5.00;;;22.90;67.20;;;;;;352482;28;963;-55
2023/09/16 00:39:26;;;;;;;9.80;5.03;;;22.90;67.40;;;;;;352389;28;1602;-54
2023/09/16 00:39:38;;;;;;;10.07;5.03;;;22.80;67.60;;;;;;352528;28;860;-55
2023/09/16 00:39:50;;;;;;;9.07;4.80;;;22.80;67.70;;;;;;352483;28;1062;-54
2023/09/16 00:40:00;;;;;;;8.52;4.60;;;22.90;67.80;;;;;;352417;28;1066;-54
2023/09/16 00:40:11;;;;;;;8.03;4.63;;;22.90;67.50;;;;;;352472;28;877;-54
2023/09/16 00:40:22;;;;;;;7.53;4.50;;;22.80;67.30;;;;;;352390;28;988;-55
2023/09/16 00:40:33;;;;;;;7.32;4.40;;;22.90;67.30;;;;;;352386;28;1038;-55
2023/09/16 00:40:43;;;;;;;8.20;4.22;;;22.90;67.20;;;;;;352416;28;2701;-54
2023/09/16 00:40:54;;;;;;;8.68;4.57;;;22.80;67.20;;;;;;352460;28;1897;-54
2023/09/16 00:41:05;;;;;;;9.10;4.80;;;22.90;67.40;;;;;;352371;28;1026;-56
2023/09/16 00:41:16;;;;;;;9.00;4.90;;;22.90;67.50;;;;;;352426;28;1034;-55
2023/09/16 00:41:27;;;;;;;8.15;4.57;;;22.80;67.50;;;;;;352501;28;1118;-56
2023/09/16 00:41:39;;;;;;;8.18;4.80;;;22.80;67.70;;;;;;352336;28;901;-54
2023/09/16 00:41:50;;;;;;;7.30;4.90;;;22.90;67.90;;;;;;352493;28;943;-56
2023/09/16 00:42:01;;;;;;;7.95;4.88;;;22.80;68.10;;;;;;352375;28;1098;-54
2023/09/16 00:42:12;;;;;;;8.00;4.73;;;22.80;68.00;;;;;;352458;28;936;-55
2023/09/16 00:42:22;;;;;;;8.15;4.38;;;22.80;68.00;;;;;;352439;27;1621;-53
2023/09/16 00:42:37;;;;;;;9.20;4.47;;;22.80;68.00;;;;;;352505;28;971;-54
2023/09/16 00:42:48;;;;;;;11.55;5.00;;;22.80;67.90;;;;;;352368;28;1038;-54
2023/09/16 00:42:59;;;;;;;11.40;5.05;;;22.90;67.80;;;;;;352392;28;1802;-54
2023/09/16 00:43:09;;;;;;;10.83;5.17;;;22.80;67.80;;;;;;352433;28;1511;-54
2023/09/16 00:43:20;;;;;;;9.68;5.15;;;22.80;67.80;;;;;;352330;28;1972;-53
2023/09/16 00:43:31;;;;;;;10.45;5.40;;;22.80;67.90;;;;;;352412;28;1031;-55
2023/09/16 00:43:42;;;;;;;11.32;5.57;;;22.80;68.00;;;;;;352439;28;1083;-54
2023/09/16 00:43:54;;;;;;;11.32;5.43;;;22.80;68.20;;;;;;352367;28;1094;-55
2023/09/16 00:44:04;;;;;;;9.88;5.05;;;22.90;68.30;;;;;;352414;28;1028;-55
2023/09/16 00:44:15;;;;;;;9.45;4.78;;;22.80;68.30;;;;;;352433;28;968;-55
2023/09/16 00:44:26;;;;;;;9.05;4.53;;;22.80;68.30;;;;;;352397;28;1453;-54
2023/09/16 00:44:37;;;;;;;8.70;4.50;;;22.80;68.30;;;;;;352449;28;1087;-56
2023/09/16 00:44:47;;;;;;;8.70;4.70;;;22.80;68.00;;;;;;352389;28;1473;-54
2023/09/16 00:44:58;;;;;;;7.97;4.50;;;22.80;67.80;;;;;;352361;28;994;-55
2023/09/16 00:45:10;;;;;;;9.13;4.75;;;22.80;67.80;;;;;;352410;28;1496;-54
2023/09/16 00:45:21;;;;;;;9.52;4.63;;;22.80;67.70;;;;;;352401;28;983;-55
2023/09/16 00:45:33;;;;;;;9.30;4.60;;;22.80;67.80;;;;;;352445;28;906;-54
2023/09/16 00:45:43;;;;;;;8.70;4.53;;;22.80;67.70;;;;;;352470;28;869;-54
2023/09/16 00:45:54;;;;;;;8.43;4.50;;;22.80;67.70;;;;;;352391;28;955;-54
2023/09/16 00:46:05;;;;;;;9.00;4.55;;;22.80;67.60;;;;;;352337;28;1158;-54
2023/09/16 00:46:16;;;;;;;9.70;4.63;;;22.80;67.60;;;;;;352456;28;821;-54
2023/09/16 00:46:27;;;;;;;10.38;4.70;;;22.80;67.70;;;;;;352390;28;1146;-54
2023/09/16 00:46:37;;;;;;;11.00;4.78;;;22.80;68.00;;;;;;352438;28;1874;-54
2023/09/16 00:46:48;;;;;;;10.63;4.70;;;22.80;68.10;;;;;;352445;28;1031;-55
2023/09/16 00:46:59;;;;;;;10.10;4.90;;;22.80;68.10;;;;;;352502;28;844;-55
2023/09/16 00:47:10;;;;;;;10.10;5.00;;;22.80;68.00;;;;;;352366;28;1102;-54
2023/09/16 00:47:21;;;;;;;8.90;4.95;;;22.80;67.70;;;;;;352462;28;1375;-54
2023/09/16 00:47:33;;;;;;;9.77;5.07;;;22.80;67.70;;;;;;352406;28;1054;-54
2023/09/16 00:47:44;;;;;;;9.27;5.00;;;22.90;67.60;;;;;;352411;28;1002;-53
2023/09/16 00:47:54;;;;;;;10.23;5.00;;;22.90;67.40;;;;;;352474;28;1829;-55
2023/09/16 00:48:05;;;;;;;9.30;4.68;;;22.80;67.40;;;;;;352454;28;880;-54
2023/09/16 00:48:18;;;;;;;9.27;4.57;;;22.80;67.50;;;;;;352317;28;1011;-54
2023/09/16 00:48:29;;;;;;;8.52;4.47;;;22.80;67.50;;;;;;352424;28;987;-55
2023/09/16 00:48:40;;;;;;;8.30;4.55;;;22.80;67.40;;;;;;352422;28;860;-54
2023/09/16 00:48:51;;;;;;;7.43;4.68;;;22.80;67.40;;;;;;352343;28;1026;-54
2023/09/16 00:49:02;;;;;;;6.78;4.40;;;22.80;67.60;;;;;;352459;28;805;-54
2023/09/16 00:49:13;;;;;;;7.73;4.70;;;22.90;67.50;;;;;;352455;28;778;-55
2023/09/16 00:49:28;;;;;;;9.13;4.75;;;22.80;67.50;;;;;;352436;28;1011;-53
2023/09/16 00:49:40;;;;;;;10.27;4.80;;;22.80;67.50;;;;;;352461;28;969;-55
2023/09/16 00:49:51;;;;;;;9.57;4.57;;;22.80;67.40;;;;;;352432;28;1174;-54
2023/09/16 00:50:06;;;;;;;9.30;4.50;;;22.80;67.30;;;;;;352424;28;829;-55
2023/09/16 00:50:17;;;;;;;8.50;4.30;;;22.80;67.40;;;;;;352432;28;1002;-55
2023/09/16 00:50:28;;;;;;;7.47;4.18;;;22.80;67.40;;;;;;352394;28;976;-54
2023/09/16 00:50:41;;;;;;;8.00;4.18;;;22.80;67.40;;;;;;352427;28;948;-54
2023/09/16 00:50:52;;;;;;;8.38;4.50;;;22.80;67.50;;;;;;352367;28;1126;-54
2023/09/16 00:51:05;;;;;;;9.13;4.55;;;22.80;67.50;;;;;;352478;28;1054;-54
2023/09/16 00:51:15;;;;;;;9.07;4.43;;;22.80;67.20;;;;;;352383;28;966;-55
2023/09/16 00:51:27;;;;;;;10.02;4.60;;;22.80;67.00;;;;;;352433;28;861;-55
2023/09/16 00:51:41;;;;;;;11.20;4.88;;;22.80;66.80;;;;;;352343;28;1186;-53
2023/09/16 00:51:52;;;;;;;10.57;4.93;;;22.80;66.90;;;;;;352464;28;1134;-54
2023/09/16 00:52:03;;;;;;;8.80;4.70;;;22.80;67.20;;;;;;352323;28;1367;-54
2023/09/16 00:52:14;;;;;;;8.27;4.55;;;22.80;67.30;;;;;;352436;28;1052;-55
2023/09/16 00:52:26;;;;;;;9.52;4.50;;;22.80;67.10;;;;;;352433;28;1094;-54
2023/09/16 00:52:41;;;;;;;9.13;4.50;;;22.80;67.10;;;;;;352487;28;881;-54
2023/09/16 00:52:55;;;;;;;9.43;4.40;;;22.80;67.10;;;;;;352449;28;927;-54
2023/09/16 00:53:06;;;;;;;9.88;4.43;;;22.80;67.10;;;;;;352462;28;864;-54
2023/09/16 00:53:17;;;;;;;9.10;4.60;;;22.80;67.10;;;;;;352357;28;1158;-54
2023/09/16 00:53:28;;;;;;;7.82;4.43;;;22.80;67.00;;;;;;352480;28;851;-53
2023/09/16 00:53:39;;;;;;;8.13;4.22;;;22.80;67.10;;;;;;352411;28;1292;-53
2023/09/16 00:53:51;;;;;;;9.23;4.30;;;22.80;67.00;;;;;;352414;28;972;-54
2023/09/16 00:54:02;;;;;;;10.38;4.38;;;22.70;66.90;;;;;;352462;27;1046;-54
2023/09/16 00:54:14;;;;;;;9.07;4.28;;;22.80;66.90;;;;;;352369;28;1011;-54
2023/09/16 00:54:26;;;;;;;9.32;4.35;;;22.80;66.80;;;;;;352423;28;925;-55
2023/09/16 00:54:38;;;;;;;9.57;4.55;;;22.70;66.90;;;;;;352406;28;1122;-53
2023/09/16 00:54:51;;;;;;;8.65;4.85;;;22.70;67.10;;;;;;352456;28;971;-55
2023/09/16 00:55:03;;;;;;;7.20;4.60;;;22.70;67.30;;;;;;352403;28;1374;-54
2023/09/16 00:55:14;;;;;;;7.95;4.60;;;22.80;67.20;;;;;;352354;28;998;-54
2023/09/16 00:55:26;;;;;;;8.15;4.47;;;22.70;67.40;;;;;;352398;28;1293;-55
2023/09/16 00:55:38;;;;;;;8.23;4.72;;;22.70;67.40;;;;;;352443;28;959;-55
2023/09/16 00:55:49;;;;;;;8.60;4.55;;;22.70;67.20;;;;;;352425;28;1007;-54
2023/09/16 00:56:00;;;;;;;8.70;4.60;;;22.70;67.10;;;;;;352393;28;923;-55
2023/09/16 00:56:13;;;;;;;9.45;4.47;;;22.70;67.00;;;;;;352481;28;1041;-54
2023/09/16 00:56:27;;;;;;;9.63;4.60;;;22.70;67.10;;;;;;352435;28;990;-54
2023/09/16 00:56:39;;;;;;;7.97;4.28;;;22.70;67.30;;;;;;352467;28;1037;-55
2023/09/16 00:56:51;;;;;;;8.93;4.13;;;22.70;67.40;;;;;;352392;28;1085;-55
2023/09/16 00:57:03;;;;;;;9.35;4.20;;;22.70;67.40;;;;;;352400;28;923;-54
2023/09/16 00:57:14;;;;;;;10.13;4.55;;;22.70;67.50;;;;;;352472;28;871;-54
2023/09/16 00:57:25;;;;;;;9.25;4.72;;;22.70;67.50;;;;;;352400;28;1485;-54
2023/09/16 00:57:40;;;;;;;10.20;4.85;;;22.70;67.50;;;;;;352358;28;1101;-55
2023/09/16 00:57:53;;;;;;;10.00;4.57;;;22.70;67.50;;;;;;352420;28;1212;-54
2023/09/16 00:58:05;;;;;;;9.98;4.50;;;22.70;67.20;;;;;;352481;28;849;-54
2023/09/16 00:58:17;;;;;;;10.55;4.70;;;22.70;67.20;;;;;;352464;28;875;-53
2023/09/16 00:58:29;;;;;;;10.18;4.63;;;22.70;67.30;;;;;;352350;28;1193;-53
2023/09/16 00:58:41;;;;;;;9.10;4.25;;;22.70;67.10;;;;;;352427;28;1313;-55
2023/09/16 00:58:51;;;;;;;6.82;4.05;;;22.70;67.10;;;;;;352456;28;872;-54
2023/09/16 00:59:03;;;;;;;8.45;4.28;;;22.70;67.00;;;;;;352377;28;879;-55
2023/09/16 00:59:14;;;;;;;9.54;4.62;;;22.70;67.00;;;;;;352379;28;2269;-55
2023/09/16 00:59:26;;;;;;;10.45;4.70;;;22.70;67.00;;;;;;352467;28;1010;-53
2023/09/16 00:59:38;;;;;;;10.07;4.75;;;22.70;67.10;;;;;;352472;28;1002;-53
2023/09/16 00:59:49;;;;;;;10.82;4.93;;;22.70;67.20;;;;;;352374;28;1014;-54
2023/09/16 00:59:59;;;;;;;8.43;4.80;;;22.70;67.30;;;;;;352418;28;987;-55
2023/09/16 01:00:11;;;;;;;9.70;4.70;;;22.70;67.30;;;;;;352387;28;1169;-53